Nearby METAR Reports

 

EGPN - Dundee/Riverside, United Kingdom
Distance from station: SSE 10km
Updated: 04/08/2021 19:50
Few Clouds
Few Clouds
 Wind from S
Wind: S 3 mph , 6 km/h
Temperature: 20°C
Dew Point: 14°C
Humidity: 69%
Barometer: 1007 hPa
Clouds: Few Clouds
Visibility: 6 miles , 10 km
Cloud details: Few Clouds 1219 m
2021/08/04 18:50 EGPN 041850Z 17003KT 9999 FEW040 20/14 Q1007
EGQL - Leuchars Raf, United Kingdom
Distance from station: SE 21km
Updated: 04/08/2021 19:50
Clear
Clear
 Wind from ESE
Wind: ESE 6 mph , 9 km/h
Temperature: 19°C
Dew Point: 13°C
Humidity: 68%
Barometer: 1007 hPa
Summary: Clear
Visibility: greater than 7 miles , 10 km
2021/08/04 18:50 EGQL 041850Z 12005KT CAVOK 19/13 Q1007 RMK BLU
 
EGPH - Edinburgh Airpor, United Kingdom
Distance from station: SSW 67km
Updated: 04/08/2021 19:50
Clear
Clear
 Wind from SSW
Wind: SSW 10 mph , 17 km/h
Temperature: 20°C
Dew Point: 9°C
Humidity: 49%
Barometer: 1008 hPa
Summary: Clear
Visibility: greater than 7 miles , 10 km
2021/08/04 18:50 EGPH 041850Z 21009KT CAVOK 20/09 Q1008
EGPD - Aberdeen/Dyce, United Kingdom
Distance from station: NE 91km
Updated: 04/08/2021 19:50
Clear
Clear
 Wind from S
Wind: S 16 mph , 26 km/h
Temperature: 17°C
Dew Point: 12°C
Humidity: 73%
Barometer: 1008 hPa
Clouds: Clear
Visibility: 6 miles , 10 km
2021/08/04 18:50 EGPD 041850Z AUTO 17014KT 9999 NCD 17/12 Q1008 NOSIG
 
EGPF - Glasgow Airport, United Kingdom
Distance from station: SW 111km
Updated: 04/08/2021 19:50
Clear
Clear
 Wind from SW
Wind: SW 13 mph , 20 km/h
Temperature: 18°C
Dew Point: 10°C
Humidity: 60%
Barometer: 1008 hPa
Clouds: Clear
Visibility: 6 miles , 10 km
2021/08/04 18:50 EGPF 041850Z AUTO 23011KT 9999 NCD 18/10 Q1008
EGPE - Inverness/Dalcro, United Kingdom
Distance from station: NNW 124km
Updated: 04/08/2021 19:50
Nearby showers, Partly cloudy
Nearby showers, Partly cloudy
 Wind from ENE
Wind: ENE 3 mph , 6 km/h
Temperature: 17°C
Dew Point: 14°C
Humidity: 83%
Barometer: 1006 hPa
Summary: Nearby Showers
Clouds: Partly cloudy
Visibility: 6 miles , 10 km
Cloud details: Few Clouds 1036 m
Partly cloudy 1463 m
2021/08/04 18:50 EGPE 041850Z 07003KT 9999 VCSH FEW034CB SCT048 17/14 Q1006
 
EGQK - Kinloss Raf, United Kingdom
Distance from station: NNW 128km
Updated: 04/08/2021 19:50
Mostly cloudy
Mostly cloudy
 Wind from ENE
Wind: ENE 7 mph , 11 km/h
Temperature: 16°C
Dew Point: 14°C
Humidity: 88%
Barometer: 1006 hPa
Clouds: Mostly cloudy
Visibility: 6 miles , 10 km
Cloud details: Mostly cloudy 1524 m
2021/08/04 18:50 EGQK 041850Z AUTO 07006KT 9999 BKN050/// 16/14 Q1006 RERA
EGQS - Lossiemouth Raf, United Kingdom
Distance from station: N 133km
Updated: 04/08/2021 19:50
Partly cloudy
Partly cloudy
 Wind from E
Wind: E 7 mph , 11 km/h
Temperature: 17°C
Dew Point: 14°C
Humidity: 83%
Barometer: 1006 hPa
Clouds: Partly cloudy
Visibility: 6 miles , 10 km
Cloud details: Few Clouds 1067 m
Partly cloudy 2743 m
2021/08/04 18:50 EGQS 041850Z 08006KT 9999 FEW035CB SCT090 17/14 Q1006 RMK BLU
 
EGPK - Prestwick(Civ/Na, United Kingdom
Distance from station: SW 148km
Updated: 04/08/2021 19:50
Clear
Clear
 Wind from S
Wind: S 8 mph , 13 km/h
Temperature: 19°C
Dew Point: 10°C
Humidity: 56%
Barometer: 1008 hPa
Summary: Clear
Visibility: greater than 7 miles , 10 km
2021/08/04 18:50 EGPK 041850Z 18007KT CAVOK 19/10 Q1008
EGQA - Tain Range (saws, United Kingdom
Distance from station: NNW 154km
Updated: 04/08/2021 11:50
NOT Current
Partly cloudy
Partly cloudy
 Wind from calm
Wind: Calm
Clouds: Partly cloudy
Visibility: 6 miles , 10 km
Cloud details: Few Clouds 366 m
Partly cloudy 975 m
2021/08/04 10:50 EGQA 041050Z 00000KT 9999 FEW012 SCT032 18/// Q1010 RMK BLU
 
EGQM - Boulmer, United Kingdom
Distance from station: SE 154km
Updated: 04/08/2021 19:50
Few Clouds
Few Clouds
 Wind from SSE
Wind: SSE 12 mph , 19 km/h
Temperature: 17°C
Dew Point: 14°C
Humidity: 83%
Barometer: 1009 hPa
Clouds: Few Clouds
Visibility: 6 miles , 10 km
Cloud details: Few Clouds 2743 m
2021/08/04 18:50 EGQM 041850Z AUTO 15010KT 9999 FEW090/// 17/14 Q1009